Etusivu
METAR-TAF:

METAR-TAF

Lentoasemat :

Kingston, Jamaika

Leveyspiiri: 17-56N, Pituuspiiri: 076-47W, korkeus merenpinnasta: 3 m

Tämänhetkinen sää

Tämä raportti tehtiin 56 minuuttia sitten, kello 11.00 UTC
Tuuli 9 kn pohjoisen/luoteesta
Lämpötila 25°C
Kosteus 79%
Ilmanpaine 1014 hPa
Näkyvyys 10 km tai enemmän
Muutamia pilviä 2200 ft:n korkeudessa

METAR: MKJP 161100Z 34009KT 9999 FEW022 25/21 Q1014

Aika: 06:56 (11:56 UTC)

Sääennuste

Tämä raportti tehtiin 41 minuuttia sitten, kello 11.15 UTC
Ennuste voimassa 16. päivästä klo 12 UTC - 17. päivään klo 12 UTC
Tuuli 6 kn pohjoisesta
Näkyvyys 10 km tai enemmän
Muutamia pilviä 2200 ft:n korkeudessa
Tulossa
16. päivästä klo 15 UTC - 16. päivään klo 17 UTC
Tuuli 15 kn etelästä/kaakosta
Tulossa
17. päivästä klo 01 UTC - 17. päivään klo 03 UTC
Tuuli 5 kn pohjoisesta

TAF: MKJP 161115Z 1612/1712 36006KT 9999 FEW022 BECMG 1615/1617 15015KT BECMG 1701/1703 36005KT

Säähavainnot ja -ennusteet yli 4000 lentoasemalta (METAR- ja TAF-raportit).

Käytössä olevat sääasemat on merkitty karttaan keltaisilla ja punaisilla pisteillä.

Aseta hiiri pisteen päälle nähdäksesi sääaseman nimen.

Klikkaa sitten nähdäksesi säähavainnot ja -ennusteet.

Kartan vaihtaminen: klikkaa mustalla rastilla varustettuja vihreitä pisteitä, niin voit zoomata sisään; viivalla varustettua vihreää pistettä, niin voit zoomata ulos tai vihreitä nuolia, niin pääset viereisille kartoille.


METAR-TAF: